createdAt,value
2022-09-16T00:05:14.816Z,1018.6
2022-09-16T00:10:55.519Z,1018.5
2022-09-16T00:16:37.486Z,1018.5
2022-09-16T00:22:19.852Z,1018.4
2022-09-16T00:28:01.434Z,1018.4
2022-09-16T00:33:46.255Z,1018.5
2022-09-16T00:39:31.005Z,1018.5
2022-09-16T00:45:14.945Z,1018.6
2022-09-16T00:50:56.478Z,1018.5
2022-09-16T00:56:46.646Z,1018.6
2022-09-16T01:02:27.585Z,1018.6
2022-09-16T01:08:13.990Z,1018.6
2022-09-16T01:13:54.591Z,1018.6
2022-09-16T01:30:15.039Z,1018.6
2022-09-16T01:35:55.768Z,1018.6
2022-09-16T01:41:36.612Z,1018.6
2022-09-16T01:47:19.461Z,1018.6
2022-09-16T01:53:00.746Z,1018.7
2022-09-16T01:58:40.828Z,1018.6
2022-09-16T02:04:21.035Z,1018.5
2022-09-16T02:10:01.720Z,1018.6
2022-09-16T02:15:45.381Z,1018.5
2022-09-16T02:21:26.386Z,1018.5
2022-09-16T02:27:06.971Z,1018.4
2022-09-16T02:32:47.719Z,1018.4
2022-09-16T02:38:28.209Z,1018.3
2022-09-16T02:44:08.311Z,1018.2
2022-09-16T02:49:51.157Z,1018.2
2022-09-16T02:55:31.243Z,1018.1
2022-09-16T03:01:11.617Z,1018.2
2022-09-16T03:06:51.609Z,1018.2
2022-09-16T03:12:31.908Z,1018.3
2022-09-16T03:18:12.411Z,1018.3
2022-09-16T03:23:53.104Z,1018.3
2022-09-16T03:29:34.271Z,1018.2
2022-09-16T03:35:19.672Z,1018.2
2022-09-16T03:40:59.826Z,1018.1
2022-09-16T03:46:40.195Z,1018.1
2022-09-16T03:52:21.470Z,1018
2022-09-16T03:58:01.910Z,1018
2022-09-16T04:03:44.953Z,1018
2022-09-16T04:09:25.399Z,1018
2022-09-16T04:15:05.760Z,1017.9
2022-09-16T04:20:46.504Z,1018
2022-09-16T04:26:28.189Z,1017.9
2022-09-16T04:32:11.781Z,1017.8
2022-09-16T04:37:51.924Z,1017.7
2022-09-16T04:43:32.450Z,1017.5
2022-09-16T04:49:13.365Z,1017.3
2022-09-16T04:54:53.987Z,1017.2
2022-09-16T05:00:34.221Z,1017.3
2022-09-16T05:06:21.207Z,1017.4
2022-09-16T05:12:01.930Z,1017.4
2022-09-16T05:17:52.260Z,1017.5
2022-09-16T05:23:32.612Z,1017.5
2022-09-16T05:29:13.207Z,1017.4
2022-09-16T05:34:54.600Z,1017.4
2022-09-16T05:40:37.252Z,1017.5
2022-09-16T05:46:18.068Z,1017.6
2022-09-16T05:51:59.605Z,1017.6
2022-09-16T05:57:39.764Z,1017.6
2022-09-16T06:03:23.215Z,1017.4
2022-09-16T06:09:04.367Z,1017.3
2022-09-16T06:14:44.416Z,1017.2
2022-09-16T06:20:25.493Z,1017.2
2022-09-16T06:26:06.513Z,1017.1
2022-09-16T06:31:46.904Z,1017
2022-09-16T06:37:27.871Z,1016.9
2022-09-16T06:43:09.016Z,1016.8
2022-09-16T06:48:52.026Z,1015.6
2022-09-16T06:54:31.977Z,1015.8
2022-09-16T07:00:13.529Z,1016.3
2022-09-16T07:05:59.032Z,1016.8
2022-09-16T07:11:40.192Z,1017.1
2022-09-16T07:17:21.234Z,1016.7
2022-09-16T07:23:03.853Z,1016.5
2022-09-16T07:28:46.521Z,1016
2022-09-16T07:34:28.145Z,1015.6
2022-09-16T07:40:10.985Z,1015.4
2022-09-16T07:45:52.101Z,1015.8
2022-09-16T07:51:33.419Z,1016
2022-09-16T07:57:13.688Z,1016.1
2022-09-16T08:02:54.546Z,1015.8
2022-09-16T08:08:36.090Z,1015.8
2022-09-16T08:14:16.714Z,1016
2022-09-16T08:19:57.596Z,1016.1
2022-09-16T08:25:38.549Z,1016
2022-09-16T08:31:19.544Z,1015.4
2022-09-16T08:37:01.197Z,1015.1
2022-09-16T08:42:42.495Z,1014.5
2022-09-16T08:48:29.162Z,1014.2
2022-09-16T08:54:10.038Z,1014.9
2022-09-16T08:59:51.154Z,1014.6
2022-09-16T09:05:31.312Z,1015
2022-09-16T09:11:12.248Z,1014.7
2022-09-16T09:16:53.705Z,1014.3
2022-09-16T09:22:35.424Z,1014.3
2022-09-16T09:28:17.153Z,1013.7
2022-09-16T09:33:59.819Z,1012.5
2022-09-16T09:44:43.315Z,1012.3
2022-09-16T09:50:24.340Z,1012.8
2022-09-16T09:56:05.134Z,1012.8
2022-09-16T10:01:46.229Z,1012.9
2022-09-16T10:07:34.417Z,1012.6
2022-09-16T10:13:24.103Z,1012.4
2022-09-16T10:19:05.319Z,1011.7
2022-09-16T10:24:48.880Z,1012
2022-09-16T10:30:44.748Z,1012
2022-09-16T10:36:25.826Z,1012.1
2022-09-16T10:42:08.110Z,1011.8
2022-09-16T10:47:51.785Z,1011.7
2022-09-16T10:53:45.230Z,1011.6
2022-09-16T10:59:26.692Z,1011.5
2022-09-16T11:05:09.125Z,1013.3
2022-09-16T11:10:50.179Z,1016.2
2022-09-16T11:16:32.308Z,1017.2
2022-09-16T11:22:13.157Z,1017.7
2022-09-16T11:27:53.930Z,1018.1
2022-09-16T11:33:34.730Z,1018.5
2022-09-16T11:39:14.914Z,1019.1
2022-09-16T11:44:55.705Z,1019
2022-09-16T11:50:37.055Z,1018.9
2022-09-16T11:56:19.973Z,1019.2
2022-09-16T12:02:08.694Z,1017.4
2022-09-16T12:07:49.603Z,1017.8
2022-09-16T12:13:33.758Z,1017.4
2022-09-16T12:19:18.270Z,1016.8
2022-09-16T12:24:58.934Z,1016.3
2022-09-16T12:30:37.857Z,1017.7
2022-09-16T12:36:24.230Z,1018.9
2022-09-16T12:42:05.271Z,1019.2
2022-09-16T12:47:45.696Z,1019.4
2022-09-16T12:53:26.401Z,1019.4
2022-09-16T12:59:07.741Z,1019.4
2022-09-16T13:04:51.520Z,1019.5
2022-09-16T13:11:51.349Z,1019.5
2022-09-16T13:18:27.579Z,1017.2
2022-09-16T13:24:14.883Z,1016.2
2022-09-16T13:29:58.657Z,1017.2
2022-09-16T13:35:39.767Z,1016.1
2022-09-16T13:41:20.543Z,1015.6
2022-09-16T13:47:02.571Z,1014.3
2022-09-16T13:52:43.475Z,1015
2022-09-16T13:58:26.570Z,1015.8
2022-09-16T14:04:07.753Z,1015.6
2022-09-16T14:09:55.488Z,1015.2
2022-09-16T14:15:35.546Z,1016
2022-09-16T14:21:16.638Z,1016.6
2022-09-16T14:26:58.230Z,1016.6
2022-09-16T14:32:37.954Z,1015.9
2022-09-16T14:38:47.307Z,1015.6
2022-09-16T14:44:28.295Z,1015.8
2022-09-16T14:50:08.371Z,1015.6
2022-09-16T14:55:49.028Z,1015.5
2022-09-16T15:01:29.804Z,1016.1
2022-09-16T15:07:12.913Z,1017.8
2022-09-16T15:12:53.396Z,1018.5
2022-09-16T15:18:34.398Z,1019.1
2022-09-16T15:24:14.778Z,1019.1
2022-09-16T15:29:55.798Z,1019.3
2022-09-16T15:35:37.156Z,1019.4
2022-09-16T15:41:17.523Z,1019.3
2022-09-16T15:46:59.120Z,1019.2
2022-09-16T15:52:41.512Z,1019.2
2022-09-16T15:58:21.852Z,1019.2
2022-09-16T16:04:03.045Z,1019.2
2022-09-16T16:09:52.662Z,1019.2
2022-09-16T16:15:33.128Z,1019.2
2022-09-16T16:21:17.458Z,1019.3
2022-09-16T16:26:58.419Z,1019.4
2022-09-16T16:32:38.708Z,1017.9
2022-09-16T16:38:22.179Z,1013.7
2022-09-16T16:44:02.942Z,1013.2
2022-09-16T16:49:51.508Z,1012.7
2022-09-16T16:55:32.558Z,1012.3
2022-09-16T17:01:14.721Z,1012.3
2022-09-16T17:07:27.837Z,1012.3
2022-09-16T17:13:10.276Z,1012.3
2022-09-16T17:18:51.408Z,1012.4
2022-09-16T17:30:04.563Z,1012.4
2022-09-16T17:35:45.433Z,1012.4
2022-09-16T17:41:35.193Z,1012.5
2022-09-16T17:47:16.193Z,1012.3
2022-09-16T17:52:57.429Z,1012.3
2022-09-16T17:58:38.059Z,1012.3
2022-09-16T18:04:18.520Z,1012.2
2022-09-16T18:09:59.456Z,1012.2
2022-09-16T18:15:39.778Z,1012.3
2022-09-16T18:21:20.536Z,1012.2
2022-09-16T18:27:02.847Z,1012.2
2022-09-16T18:32:46.144Z,1012.2
2022-09-16T18:38:31.001Z,1012.2
2022-09-16T18:44:12.633Z,1012.2
2022-09-16T18:49:53.126Z,1012.1
2022-09-16T18:55:39.523Z,1012.1
2022-09-16T19:01:27.866Z,1012.1
2022-09-16T19:07:11.370Z,1012.2
2022-09-16T19:12:54.497Z,1012.1
2022-09-16T19:18:35.214Z,1012.1
2022-09-16T19:24:15.730Z,1012.2
2022-09-16T19:29:56.715Z,1012.2
2022-09-16T19:35:38.058Z,1012.3
2022-09-16T19:41:18.754Z,1012.2
2022-09-16T19:46:59.552Z,1012.1
2022-09-16T19:52:40.252Z,1012.2
2022-09-16T19:58:20.412Z,1012.1
2022-09-16T20:04:01.218Z,1012.1
2022-09-16T20:09:42.005Z,1012.1
2022-09-16T20:15:24.316Z,1012.1
2022-09-16T20:21:05.274Z,1012.1
2022-09-16T20:26:49.336Z,1012.1
2022-09-16T20:32:29.677Z,1012.2
2022-09-16T20:38:10.258Z,1012.2
2022-09-16T20:43:54.598Z,1012.2
2022-09-16T20:49:35.467Z,1012.3
2022-09-16T20:55:21.179Z,1012.3
2022-09-16T21:01:03.995Z,1012.3
2022-09-16T21:06:45.011Z,1012.3
2022-09-16T21:12:27.425Z,1012.3
2022-09-16T21:18:14.893Z,1012.3
2022-09-16T21:23:55.557Z,1012.5
2022-09-16T21:29:36.128Z,1012.6
2022-09-16T21:35:19.253Z,1012.7
2022-09-16T21:40:59.449Z,1012.7
2022-09-16T21:46:40.463Z,1012.8
2022-09-16T21:52:22.603Z,1012.8
2022-09-16T21:58:03.035Z,1012.8
2022-09-16T22:03:43.969Z,1012.8
2022-09-16T22:09:24.589Z,1012.8
2022-09-16T22:15:05.239Z,1012.7
2022-09-16T22:20:45.926Z,1012.8
2022-09-16T22:26:27.050Z,1012.7
2022-09-16T22:32:10.651Z,1012.6
2022-09-16T22:37:51.376Z,1012.6
2022-09-16T22:43:32.214Z,1012.5
2022-09-16T22:49:12.389Z,1012.4
2022-09-16T22:54:53.136Z,1012.4
2022-09-16T23:00:40.729Z,1012.4
2022-09-16T23:06:20.947Z,1012.6
2022-09-16T23:12:01.654Z,1012.4
2022-09-16T23:17:42.509Z,1012.4
2022-09-16T23:23:22.465Z,1012.4
2022-09-16T23:29:03.204Z,1012.3
2022-09-16T23:34:44.159Z,1012.3
2022-09-16T23:40:24.469Z,1012.4
2022-09-16T23:46:05.672Z,1012.3
2022-09-16T23:51:47.027Z,1012.2
2022-09-16T23:57:27.465Z,1012.3
